createdAt,value
2017-10-13T00:01:09.588Z,6.83
2017-10-13T00:03:36.937Z,6.47
2017-10-13T00:06:04.276Z,4.70
2017-10-13T00:08:31.647Z,9.63
2017-10-13T00:10:58.999Z,4.27
2017-10-13T00:13:26.350Z,5.60
2017-10-13T00:15:53.704Z,3.23
2017-10-13T00:18:21.051Z,2.80
2017-10-13T00:20:48.391Z,6.40
2017-10-13T00:23:15.745Z,5.60
2017-10-13T00:25:43.065Z,5.80
2017-10-13T00:28:10.688Z,4.87
2017-10-13T00:30:37.989Z,5.77
2017-10-13T00:33:05.349Z,3.53
2017-10-13T00:35:32.693Z,4.60
2017-10-13T00:38:00.077Z,5.87
2017-10-13T00:40:27.392Z,3.13
2017-10-13T00:42:54.725Z,3.93
2017-10-13T00:45:22.068Z,4.70
2017-10-13T00:47:49.414Z,4.43
2017-10-13T00:50:16.770Z,4.07
2017-10-13T00:52:44.122Z,5.03
2017-10-13T00:55:11.477Z,6.93
2017-10-13T00:57:38.817Z,5.23
2017-10-13T01:00:06.133Z,3.57
2017-10-13T01:02:33.489Z,6.20
2017-10-13T01:05:00.812Z,7.40
2017-10-13T01:07:28.199Z,5.60
2017-10-13T01:09:55.533Z,4.00
2017-10-13T01:12:22.857Z,3.47
2017-10-13T01:14:50.204Z,6.73
2017-10-13T01:17:17.524Z,3.23
2017-10-13T01:19:44.877Z,6.93
2017-10-13T01:22:12.271Z,3.33
2017-10-13T01:24:39.588Z,3.07
2017-10-13T01:27:06.932Z,8.27
2017-10-13T01:29:34.342Z,7.80
2017-10-13T01:32:01.669Z,3.83
2017-10-13T01:34:29.052Z,3.17
2017-10-13T01:36:56.385Z,6.73
2017-10-13T01:39:23.725Z,7.73
2017-10-13T01:41:51.066Z,3.10
2017-10-13T01:44:18.359Z,3.13
2017-10-13T01:46:45.749Z,5.17
2017-10-13T01:49:13.212Z,2.93
2017-10-13T01:51:40.564Z,4.27
2017-10-13T01:54:07.907Z,5.73
2017-10-13T01:56:35.270Z,2.90
2017-10-13T01:59:02.606Z,4.10
2017-10-13T02:01:29.964Z,6.33
2017-10-13T02:03:57.295Z,3.47
2017-10-13T02:06:24.680Z,6.43
2017-10-13T02:08:52.029Z,3.30
2017-10-13T02:11:19.392Z,4.70
2017-10-13T02:13:46.731Z,14.30
2017-10-13T02:16:14.086Z,3.97
2017-10-13T02:18:41.561Z,2.67
2017-10-13T02:21:08.895Z,6.10
2017-10-13T02:23:36.253Z,3.43
2017-10-13T02:26:03.588Z,6.17
2017-10-13T02:28:30.946Z,2.67
2017-10-13T02:30:58.273Z,6.53
2017-10-13T02:33:25.617Z,4.17
2017-10-13T02:35:52.969Z,3.70
2017-10-13T02:38:20.360Z,4.77
2017-10-13T02:40:47.703Z,3.93
2017-10-13T02:43:15.070Z,4.57
2017-10-13T02:45:42.439Z,2.93
2017-10-13T02:48:09.767Z,3.73
2017-10-13T02:50:37.264Z,6.43
2017-10-13T02:53:04.601Z,3.80
2017-10-13T02:55:31.967Z,4.03
2017-10-13T02:57:59.295Z,9.33
2017-10-13T03:00:26.601Z,4.37
2017-10-13T03:02:53.954Z,2.90
2017-10-13T03:05:21.308Z,2.43
2017-10-13T03:07:48.662Z,2.23
2017-10-13T03:10:15.990Z,5.67
2017-10-13T03:12:43.352Z,2.63
2017-10-13T03:15:10.683Z,2.20
2017-10-13T03:17:38.045Z,2.90
2017-10-13T03:20:05.353Z,2.67
2017-10-13T03:22:32.684Z,2.07
2017-10-13T03:25:00.070Z,2.80
2017-10-13T03:27:27.423Z,3.87
2017-10-13T03:29:54.829Z,2.80
2017-10-13T03:32:22.194Z,2.20
2017-10-13T03:34:49.546Z,2.57
2017-10-13T03:37:16.894Z,8.40
2017-10-13T03:39:44.194Z,2.80
2017-10-13T03:42:11.521Z,4.07
2017-10-13T03:44:38.877Z,4.60
2017-10-13T03:47:06.256Z,4.87
2017-10-13T03:49:33.590Z,2.40
2017-10-13T03:52:00.958Z,2.40
2017-10-13T03:54:28.283Z,4.27
2017-10-13T03:56:55.632Z,3.17
2017-10-13T03:59:22.972Z,4.00
2017-10-13T04:01:50.320Z,6.20
2017-10-13T04:04:17.687Z,4.20
2017-10-13T04:06:45.070Z,2.53
2017-10-13T04:09:12.408Z,2.23
2017-10-13T04:11:39.744Z,2.90
2017-10-13T04:14:07.109Z,3.10
2017-10-13T04:16:34.439Z,3.70
2017-10-13T04:19:01.885Z,3.77
2017-10-13T04:21:29.216Z,3.30
2017-10-13T04:23:56.569Z,2.53
2017-10-13T04:26:23.893Z,6.20
2017-10-13T04:28:51.368Z,4.70
2017-10-13T04:31:18.753Z,3.50
2017-10-13T04:33:46.085Z,2.30
2017-10-13T04:36:13.528Z,3.47
2017-10-13T04:38:40.880Z,6.37
2017-10-13T04:41:08.220Z,2.40
2017-10-13T04:43:35.533Z,2.50
2017-10-13T04:46:02.900Z,3.60
2017-10-13T04:48:30.252Z,3.50
2017-10-13T04:50:57.612Z,2.73
2017-10-13T04:53:25.128Z,3.07
2017-10-13T04:55:52.483Z,5.40
2017-10-13T04:58:19.815Z,5.07
2017-10-13T05:00:47.170Z,5.30
2017-10-13T05:03:14.506Z,2.77
2017-10-13T05:05:41.863Z,2.30
2017-10-13T05:08:09.211Z,3.77
2017-10-13T05:10:36.533Z,4.00
2017-10-13T05:13:03.872Z,2.17
2017-10-13T05:15:31.234Z,4.13
2017-10-13T05:17:58.583Z,3.90
2017-10-13T05:20:25.949Z,4.53
2017-10-13T05:22:53.289Z,3.43
2017-10-13T05:25:20.611Z,2.80
2017-10-13T05:27:47.964Z,3.70
2017-10-13T05:30:15.284Z,5.07
2017-10-13T05:32:42.649Z,4.60
2017-10-13T05:35:09.985Z,6.27
2017-10-13T05:37:37.328Z,8.73
2017-10-13T05:40:04.683Z,11.47
2017-10-13T11:15:14.359Z,18.63
2017-10-13T11:17:41.832Z,13.23
2017-10-13T11:20:09.199Z,15.50
2017-10-13T11:22:36.585Z,19.27
2017-10-13T11:25:03.941Z,15.97
2017-10-13T11:27:31.419Z,13.23
2017-10-13T11:29:58.800Z,13.10
2017-10-13T11:32:26.144Z,11.70
2017-10-13T11:34:53.555Z,18.90
2017-10-13T11:37:20.896Z,16.50
2017-10-13T11:39:48.254Z,12.40
2017-10-13T11:42:15.694Z,15.33
2017-10-13T11:44:43.083Z,28.13
2017-10-13T11:47:10.520Z,17.97
2017-10-13T11:49:37.883Z,14.73
2017-10-13T11:52:05.249Z,16.17
2017-10-13T11:54:32.631Z,13.07
2017-10-13T11:57:00.033Z,13.77
2017-10-13T11:59:27.375Z,15.43
2017-10-13T12:01:54.741Z,12.87
2017-10-13T12:04:22.097Z,14.33
2017-10-13T12:06:49.505Z,13.40
2017-10-13T12:09:16.903Z,15.83
2017-10-13T12:11:44.283Z,15.77
2017-10-13T12:14:11.678Z,13.43
2017-10-13T12:16:39.057Z,13.40
2017-10-13T12:19:06.453Z,12.53
2017-10-13T12:21:33.809Z,12.83
2017-10-13T12:24:01.147Z,14.20
2017-10-13T12:26:28.505Z,11.07
2017-10-13T12:28:55.897Z,12.07
2017-10-13T12:31:23.252Z,11.27
2017-10-13T12:33:50.636Z,11.17
2017-10-13T12:36:17.990Z,12.67
2017-10-13T12:38:45.365Z,11.07
2017-10-13T12:41:12.758Z,14.17
2017-10-13T12:43:40.140Z,13.43
2017-10-13T12:46:07.661Z,12.57
2017-10-13T12:48:35.058Z,10.37
2017-10-13T12:51:02.437Z,13.73
2017-10-13T12:53:29.804Z,11.57
2017-10-13T12:55:57.153Z,11.47
2017-10-13T12:58:24.528Z,9.43
2017-10-13T13:00:51.889Z,8.17
2017-10-13T13:03:19.244Z,8.53
2017-10-13T13:05:46.602Z,8.47
2017-10-13T13:08:13.963Z,7.77
2017-10-13T13:10:41.515Z,11.90
2017-10-13T13:13:08.917Z,8.93
2017-10-13T13:15:36.268Z,7.37
2017-10-13T13:18:03.888Z,7.57
2017-10-13T13:20:31.227Z,9.33
2017-10-13T13:22:58.568Z,5.33
2017-10-13T13:25:25.905Z,6.60
2017-10-13T13:27:53.276Z,7.73
2017-10-13T13:30:20.644Z,7.33
2017-10-13T13:32:48.065Z,5.73
2017-10-13T13:35:15.448Z,6.40
2017-10-13T13:37:42.759Z,5.40
2017-10-13T13:40:10.221Z,5.53
2017-10-13T13:42:37.764Z,5.67
2017-10-13T13:45:05.087Z,5.47
2017-10-13T13:47:32.448Z,7.60
2017-10-13T13:49:59.844Z,12.37
2017-10-13T13:52:27.183Z,10.87
2017-10-13T13:54:54.552Z,11.53
2017-10-13T13:57:21.925Z,9.10
2017-10-13T13:59:49.268Z,8.20
2017-10-13T14:02:16.636Z,12.40
2017-10-13T14:04:44.036Z,6.40
2017-10-13T14:07:11.367Z,7.13
2017-10-13T14:09:38.707Z,8.20
2017-10-13T14:12:06.053Z,9.00
2017-10-13T14:14:33.409Z,7.93
2017-10-13T14:17:00.825Z,12.83
2017-10-13T14:19:28.247Z,26.47
2017-10-13T14:21:55.597Z,9.67
2017-10-13T14:24:22.948Z,9.37
2017-10-13T14:26:50.310Z,10.70
2017-10-13T14:29:17.716Z,10.63
2017-10-13T14:31:45.043Z,8.77
2017-10-13T14:34:12.453Z,9.90
2017-10-13T14:36:39.816Z,9.03
2017-10-13T14:39:07.156Z,12.53
2017-10-13T14:41:34.526Z,16.07
2017-10-13T14:44:01.886Z,16.83
2017-10-13T14:46:29.238Z,13.90
2017-10-13T14:48:56.584Z,14.83
2017-10-13T14:51:23.980Z,15.47
2017-10-13T14:53:51.321Z,17.17
2017-10-13T14:56:18.709Z,15.20
2017-10-13T14:58:46.059Z,14.13
2017-10-13T15:01:13.428Z,15.83
2017-10-13T15:03:40.796Z,15.53
2017-10-13T15:06:08.229Z,16.27
2017-10-13T15:08:35.598Z,13.90
2017-10-13T15:11:02.960Z,12.70
2017-10-13T15:13:30.268Z,15.17
2017-10-13T15:15:57.625Z,13.00
2017-10-13T15:18:25.106Z,17.27
2017-10-13T15:20:52.458Z,13.20
2017-10-13T15:23:19.853Z,11.27
2017-10-13T15:25:52.834Z,16.17
2017-10-13T15:28:35.999Z,12.37
2017-10-13T15:31:03.340Z,16.60
2017-10-13T15:33:36.498Z,11.53
2017-10-13T15:36:09.528Z,12.03
2017-10-13T15:38:42.581Z,13.60
2017-10-13T15:41:15.743Z,17.83
2017-10-13T15:43:48.937Z,11.30
2017-10-13T15:46:21.924Z,13.43
2017-10-13T15:49:04.168Z,14.30
2017-10-13T15:51:46.389Z,10.33
2017-10-13T15:54:13.768Z,12.47
2017-10-13T15:56:41.106Z,15.83
2017-10-13T15:59:08.467Z,12.43
2017-10-13T16:01:35.845Z,16.23
2017-10-13T16:04:03.225Z,17.03
2017-10-13T16:06:30.614Z,17.80
2017-10-13T16:08:58.037Z,14.90
2017-10-13T16:11:25.453Z,15.93
2017-10-13T16:13:52.861Z,20.57
2017-10-13T16:16:20.256Z,12.53
2017-10-13T16:18:47.672Z,14.63
2017-10-13T16:21:15.057Z,12.80
2017-10-13T16:23:42.442Z,12.60
2017-10-13T16:26:09.833Z,10.93
2017-10-13T16:28:37.185Z,14.43
2017-10-13T16:31:04.566Z,14.57
2017-10-13T16:33:31.909Z,11.13
2017-10-13T16:35:59.305Z,13.83
2017-10-13T16:38:26.672Z,11.13
2017-10-13T16:40:54.016Z,14.53
2017-10-13T16:43:21.383Z,12.00
2017-10-13T16:45:48.789Z,17.40
2017-10-13T16:48:16.477Z,15.93
2017-10-13T16:50:44.055Z,12.40
2017-10-13T16:53:13.663Z,13.20
2017-10-13T16:55:42.550Z,14.73
2017-10-13T16:58:10.042Z,17.27
2017-10-13T17:00:37.395Z,14.67
2017-10-13T17:03:04.773Z,11.10
2017-10-13T17:05:32.171Z,18.57
2017-10-13T17:07:59.538Z,13.40
2017-10-13T17:10:27.003Z,12.00
2017-10-13T17:12:54.373Z,25.97
2017-10-13T17:15:21.742Z,15.83
2017-10-13T17:17:49.092Z,16.00
2017-10-13T17:20:16.460Z,17.90
2017-10-13T17:22:43.849Z,16.33
2017-10-13T17:25:11.213Z,17.53
2017-10-13T17:27:38.684Z,20.33
2017-10-13T17:30:06.039Z,16.10
2017-10-13T17:32:33.430Z,16.17
2017-10-13T17:35:00.891Z,17.40
2017-10-13T17:37:28.251Z,19.00
2017-10-13T17:39:55.633Z,22.13
2017-10-13T17:42:23.058Z,12.40
2017-10-13T17:44:50.483Z,21.90
2017-10-13T17:47:17.965Z,22.17
2017-10-13T17:49:45.309Z,21.03
2017-10-13T17:52:12.687Z,18.60
2017-10-13T17:54:40.161Z,20.10
2017-10-13T17:57:07.540Z,23.20
2017-10-13T17:59:34.910Z,20.37
2017-10-13T18:02:02.313Z,16.77
2017-10-13T18:04:29.702Z,17.97
2017-10-13T18:06:57.062Z,14.97
2017-10-13T18:09:24.442Z,13.60
2017-10-13T18:11:51.787Z,19.23
2017-10-13T18:14:19.214Z,18.00
2017-10-13T18:16:46.593Z,22.13
2017-10-13T18:19:13.988Z,17.97
2017-10-13T18:21:41.323Z,23.00
2017-10-13T18:24:08.719Z,22.93
2017-10-13T18:26:36.125Z,21.90
2017-10-13T18:29:03.490Z,17.97
2017-10-13T18:31:30.862Z,26.23
2017-10-13T18:33:58.342Z,19.63
2017-10-13T18:36:25.757Z,27.90
2017-10-13T18:38:53.144Z,21.40
2017-10-13T18:41:20.533Z,19.30
2017-10-13T18:43:47.900Z,22.30
2017-10-13T18:46:15.344Z,19.33
2017-10-13T18:48:42.763Z,21.60
2017-10-13T18:51:10.828Z,8.40
2017-10-13T18:53:38.523Z,10.63
2017-10-13T18:56:05.945Z,12.83
2017-10-13T18:58:33.341Z,10.40
2017-10-13T19:01:00.693Z,12.53
2017-10-13T19:03:28.067Z,13.43
2017-10-13T19:05:55.387Z,8.33
2017-10-13T19:08:22.765Z,10.50
2017-10-13T19:10:50.117Z,10.30
2017-10-13T19:13:17.522Z,17.40
2017-10-13T19:15:44.875Z,8.47
2017-10-13T19:18:12.560Z,9.37
2017-10-13T19:20:39.910Z,9.20
2017-10-13T19:23:07.307Z,8.30
2017-10-13T19:25:34.650Z,6.83
2017-10-13T19:28:02.047Z,6.57
2017-10-13T19:30:29.451Z,8.50
2017-10-13T19:32:56.802Z,6.93
2017-10-13T19:35:24.205Z,11.00
2017-10-13T19:37:51.549Z,9.50
2017-10-13T19:40:18.908Z,6.37
2017-10-13T19:42:46.272Z,11.33
2017-10-13T19:45:13.647Z,7.33
2017-10-13T19:47:41.008Z,9.53
2017-10-13T19:50:08.348Z,8.20
2017-10-13T19:52:35.690Z,9.00
2017-10-13T19:55:03.057Z,7.37
2017-10-13T19:57:30.407Z,6.30
2017-10-13T19:59:57.801Z,12.33
2017-10-13T20:02:25.162Z,6.83
2017-10-13T20:04:52.480Z,7.40
2017-10-13T20:07:19.852Z,6.27
2017-10-13T20:09:47.201Z,9.03
2017-10-13T20:12:14.565Z,5.83
2017-10-13T20:14:41.944Z,7.20
2017-10-13T20:17:09.281Z,9.07
2017-10-13T20:19:36.620Z,6.60
2017-10-13T20:22:04.022Z,9.93
2017-10-13T20:24:31.391Z,8.80
2017-10-13T20:26:58.779Z,7.20
2017-10-13T20:29:26.153Z,7.97
2017-10-13T20:31:53.519Z,5.77
2017-10-13T20:34:20.909Z,7.10
2017-10-13T20:36:48.221Z,7.53
2017-10-13T20:39:15.561Z,5.90
2017-10-13T20:41:42.953Z,7.10
2017-10-13T20:44:10.352Z,6.30
2017-10-13T20:46:37.748Z,6.47
2017-10-13T20:49:05.097Z,8.70
2017-10-13T20:51:32.417Z,7.27
2017-10-13T20:53:59.785Z,5.53
2017-10-13T20:56:27.173Z,6.67
2017-10-13T20:58:54.545Z,6.43
2017-10-13T21:01:21.924Z,7.80
2017-10-13T21:03:49.278Z,7.60
2017-10-13T21:06:16.649Z,10.50
2017-10-13T21:08:44.014Z,6.87
2017-10-13T21:11:11.356Z,11.90
2017-10-13T21:13:38.713Z,7.47
2017-10-13T21:16:06.087Z,6.37
2017-10-13T21:18:33.445Z,7.50
2017-10-13T21:21:00.823Z,9.10
2017-10-13T21:23:28.165Z,8.70
2017-10-13T21:25:55.520Z,12.30
2017-10-13T21:28:22.849Z,9.53
2017-10-13T21:30:50.223Z,7.83
2017-10-13T21:33:17.572Z,8.33
2017-10-13T21:35:44.913Z,9.07
2017-10-13T21:38:12.274Z,9.03
2017-10-13T21:40:39.609Z,9.17
2017-10-13T21:43:06.997Z,7.97
2017-10-13T21:45:35.289Z,12.33
2017-10-13T21:48:02.686Z,10.93
2017-10-13T21:50:30.040Z,7.63
2017-10-13T21:52:57.407Z,9.47
2017-10-13T21:55:24.838Z,6.10
2017-10-13T21:57:52.173Z,8.80
2017-10-13T22:00:19.525Z,9.80
2017-10-13T22:02:46.866Z,9.97
2017-10-13T22:05:14.300Z,7.53
2017-10-13T22:07:41.789Z,8.53
2017-10-13T22:10:09.170Z,7.70
2017-10-13T22:12:36.513Z,9.00
2017-10-13T22:15:03.849Z,6.67
2017-10-13T22:17:31.315Z,9.43
2017-10-13T22:19:58.702Z,11.20
2017-10-13T22:22:26.060Z,8.10
2017-10-13T22:24:53.442Z,7.97
2017-10-13T22:27:20.809Z,7.80
2017-10-13T22:29:48.172Z,9.00
2017-10-13T22:32:15.556Z,10.13
2017-10-13T22:34:42.915Z,11.97
2017-10-13T22:37:10.245Z,12.33
2017-10-13T22:39:37.649Z,9.43
2017-10-13T22:42:05.023Z,9.30
2017-10-13T22:44:32.406Z,11.47
2017-10-13T22:46:59.788Z,11.60
2017-10-13T22:49:27.147Z,10.40
2017-10-13T22:51:54.541Z,8.53
2017-10-13T22:54:21.837Z,9.70
2017-10-13T22:56:49.186Z,7.40
2017-10-13T22:59:16.520Z,6.13
2017-10-13T23:01:43.869Z,8.33
2017-10-13T23:04:11.219Z,7.53
2017-10-13T23:06:38.580Z,5.10
2017-10-13T23:09:05.992Z,7.27
2017-10-13T23:11:33.421Z,10.23
2017-10-13T23:14:00.753Z,6.70
2017-10-13T23:16:28.112Z,15.83
2017-10-13T23:18:55.471Z,5.57
2017-10-13T23:21:22.828Z,8.17
2017-10-13T23:23:50.159Z,9.27
2017-10-13T23:26:17.503Z,9.00
2017-10-13T23:28:44.884Z,5.70
2017-10-13T23:31:12.246Z,9.90
2017-10-13T23:33:39.631Z,7.33
2017-10-13T23:36:06.941Z,6.40
2017-10-13T23:38:34.381Z,6.57
2017-10-13T23:41:01.702Z,6.10
2017-10-13T23:43:29.065Z,6.80
2017-10-13T23:45:56.393Z,5.70
2017-10-13T23:48:23.774Z,14.00
2017-10-13T23:50:51.096Z,10.17
2017-10-13T23:53:18.462Z,8.50
2017-10-13T23:55:45.797Z,8.47
2017-10-13T23:58:13.125Z,9.53
